Time;durP1;ratioP1;P1;durP2;ratioP2;P2;SDS_P1;SDS_P2;PMS_P1;PMS_P2;Temp;Humidity;BMP_temperature;BMP_pressure;BME280_temperature;BME280_humidity;BME280_pressure;Samples;Min_cycle;Max_cycle;Signal;HPM_P1;HPM_P2
2022/11/13 00:00:08;;;;;;;18.98;13.32;;;;;;;;;;1043712;28;20064;-76
2022/11/13 00:00:39;;;;;;;14.80;12.05;;;;;;;;;;1043660;28;20017;-79
2022/11/13 00:01:20;;;;;;;14.98;11.93;;;;;;;;;;1048195;28;20025;-77
2022/11/13 00:01:51;;;;;;;14.93;11.48;;;;;;;;;;1049177;28;20027;-77
2022/11/13 00:02:22;;;;;;;19.20;11.93;;;;;;;;;;1050046;28;20107;-79
2022/11/13 00:02:53;;;;;;;14.80;13.07;;;;;;;;;;1052057;28;20028;-79
2022/11/13 00:03:24;;;;;;;16.25;12.52;;;;;;;;;;1052071;28;20008;-78
2022/11/13 00:03:55;;;;;;;16.20;12.82;;;;;;;;;;1045562;28;20881;-77
2022/11/13 00:04:26;;;;;;;17.60;12.60;;;;;;;;;;1043934;28;20013;-77
2022/11/13 00:04:57;;;;;;;17.98;13.27;;;;;;;;;;1051762;28;20016;-77
2022/11/13 00:05:27;;;;;;;16.08;11.95;;;;;;;;;;1047875;28;20027;-76
2022/11/13 00:05:59;;;;;;;16.20;11.98;;;;;;;;;;1047609;28;20008;-76
2022/11/13 00:06:30;;;;;;;17.08;13.00;;;;;;;;;;1047640;28;20499;-77
2022/11/13 00:07:01;;;;;;;15.20;12.48;;;;;;;;;;1047314;28;20491;-77
2022/11/13 00:07:32;;;;;;;17.52;13.40;;;;;;;;;;1047824;28;20095;-78
2022/11/13 00:08:03;;;;;;;18.50;13.15;;;;;;;;;;1047255;28;20108;-78
2022/11/13 00:08:34;;;;;;;20.55;12.63;;;;;;;;;;1039528;28;20071;-76
2022/11/13 00:09:05;;;;;;;19.20;13.70;;;;;;;;;;1041615;28;20068;-77
2022/11/13 00:09:36;;;;;;;17.00;13.38;;;;;;;;;;1043496;28;20027;-78
2022/11/13 00:10:07;;;;;;;21.73;14.20;;;;;;;;;;1043988;28;20117;-79
2022/11/13 00:10:38;;;;;;;15.45;11.52;;;;;;;;;;1047634;28;20070;-78
2022/11/13 00:11:14;;;;;;;16.88;12.52;;;;;;;;;;1043863;28;20021;-78
2022/11/13 00:11:45;;;;;;;14.77;12.73;;;;;;;;;;1048641;28;20103;-77
2022/11/13 00:12:16;;;;;;;16.33;11.88;;;;;;;;;;1051665;28;20027;-78
2022/11/13 00:12:47;;;;;;;17.40;12.52;;;;;;;;;;1051851;28;20028;-77
2022/11/13 00:13:18;;;;;;;18.10;13.48;;;;;;;;;;1051814;28;20016;-78
2022/11/13 00:13:49;;;;;;;16.80;13.15;;;;;;;;;;1051930;28;20052;-76
2022/11/13 00:14:20;;;;;;;18.38;13.52;;;;;;;;;;1051685;28;20035;-77
2022/11/13 00:14:51;;;;;;;19.30;13.57;;;;;;;;;;1051575;28;20418;-78
2022/11/13 00:15:22;;;;;;;20.10;14.25;;;;;;;;;;1047927;28;20494;-78
2022/11/13 00:15:56;;;;;;;16.33;12.95;;;;;;;;;;1050055;28;20027;-78
2022/11/13 00:16:27;;;;;;;16.98;14.30;;;;;;;;;;1043666;28;20021;-77
2022/11/13 00:16:58;;;;;;;19.55;13.10;;;;;;;;;;1043471;28;20017;-77
2022/11/13 00:17:29;;;;;;;17.05;13.48;;;;;;;;;;1044064;28;20411;-78
2022/11/13 00:18:01;;;;;;;23.67;13.30;;;;;;;;;;1043516;28;20486;-77
2022/11/13 00:18:35;;;;;;;16.75;13.70;;;;;;;;;;1044278;28;20068;-78
2022/11/13 00:19:06;;;;;;;17.70;13.40;;;;;;;;;;1047832;28;20016;-78
2022/11/13 00:19:37;;;;;;;18.33;12.93;;;;;;;;;;1051616;28;20020;-78
2022/11/13 00:20:08;;;;;;;18.25;13.80;;;;;;;;;;1047521;28;20073;-77
2022/11/13 00:20:39;;;;;;;16.90;13.90;;;;;;;;;;1045748;28;20040;-77
2022/11/13 00:21:18;;;;;;;17.17;13.15;;;;;;;;;;1046723;28;20019;-76
2022/11/13 00:21:49;;;;;;;15.63;12.70;;;;;;;;;;1044921;28;20105;-77
2022/11/13 00:22:20;;;;;;;17.45;13.18;;;;;;;;;;1043572;28;20263;-77
2022/11/13 00:22:51;;;;;;;16.80;13.52;;;;;;;;;;1044656;28;20044;-78
2022/11/13 00:23:22;;;;;;;17.73;13.07;;;;;;;;;;1043608;28;20017;-78
2022/11/13 00:23:54;;;;;;;17.30;14.00;;;;;;;;;;1043196;28;20626;-77
2022/11/13 00:24:25;;;;;;;19.48;13.85;;;;;;;;;;1043999;28;20009;-78
2022/11/13 00:24:56;;;;;;;17.42;14.07;;;;;;;;;;1043634;28;20021;-77
2022/11/13 00:25:27;;;;;;;16.48;12.43;;;;;;;;;;1047788;28;20021;-77
2022/11/13 00:26:02;;;;;;;13.77;12.27;;;;;;;;;;1042765;28;20523;-76
2022/11/13 00:26:33;;;;;;;15.38;11.50;;;;;;;;;;1044253;28;20503;-78
2022/11/13 00:27:04;;;;;;;15.65;12.75;;;;;;;;;;1044273;28;20487;-77
2022/11/13 00:27:35;;;;;;;16.48;11.95;;;;;;;;;;1043992;28;20070;-79
2022/11/13 00:28:06;;;;;;;17.45;13.63;;;;;;;;;;1047702;28;20021;-78
2022/11/13 00:28:37;;;;;;;15.30;12.70;;;;;;;;;;1043644;28;20013;-78
2022/11/13 00:29:08;;;;;;;16.02;13.13;;;;;;;;;;1043611;28;20104;-78
2022/11/13 00:29:39;;;;;;;14.98;12.48;;;;;;;;;;1045933;28;20021;-77
2022/11/13 00:30:10;;;;;;;15.75;11.60;;;;;;;;;;1039691;28;20115;-77
2022/11/13 00:30:41;;;;;;;17.05;12.75;;;;;;;;;;1038999;28;20021;-78
2022/11/13 00:31:14;;;;;;;14.40;11.77;;;;;;;;;;1045306;28;20021;-78
2022/11/13 00:31:45;;;;;;;14.95;12.48;;;;;;;;;;1043832;28;20021;-78
2022/11/13 00:32:16;;;;;;;15.73;12.18;;;;;;;;;;1043927;28;20112;-78
2022/11/13 00:32:47;;;;;;;15.48;12.25;;;;;;;;;;1043198;28;20024;-78
2022/11/13 00:33:18;;;;;;;14.23;10.57;;;;;;;;;;1043304;28;20021;-78
2022/11/13 00:33:49;;;;;;;14.05;11.50;;;;;;;;;;1043402;28;20021;-78
2022/11/13 00:34:20;;;;;;;20.20;12.63;;;;;;;;;;1043702;28;20116;-77
2022/11/13 00:34:52;;;;;;;15.85;12.85;;;;;;;;;;1043322;28;20352;-76
2022/11/13 00:35:23;;;;;;;14.85;11.98;;;;;;;;;;1047595;28;20021;-78
2022/11/13 00:35:54;;;;;;;19.33;12.45;;;;;;;;;;1044171;28;20013;-78
2022/11/13 00:36:26;;;;;;;15.35;11.75;;;;;;;;;;1047447;28;20404;-78
2022/11/13 00:36:57;;;;;;;16.08;12.07;;;;;;;;;;1047356;28;20012;-77
2022/11/13 00:37:28;;;;;;;18.23;13.02;;;;;;;;;;1047842;28;20066;-76
2022/11/13 00:37:59;;;;;;;16.63;11.93;;;;;;;;;;1047609;28;20025;-77
2022/11/13 00:38:30;;;;;;;15.70;12.23;;;;;;;;;;1051549;28;20020;-78
2022/11/13 00:39:01;;;;;;;16.02;12.20;;;;;;;;;;1051593;28;20024;-77
2022/11/13 00:39:32;;;;;;;15.50;11.88;;;;;;;;;;1051775;28;20103;-77
2022/11/13 00:40:03;;;;;;;14.70;11.85;;;;;;;;;;1051579;28;20131;-76
2022/11/13 00:40:34;;;;;;;14.27;11.27;;;;;;;;;;1051721;28;20497;-77
2022/11/13 00:41:05;;;;;;;16.63;11.07;;;;;;;;;;1051480;28;20442;-78
2022/11/13 00:41:36;;;;;;;15.80;11.63;;;;;;;;;;1051564;28;20123;-77
2022/11/13 00:42:07;;;;;;;16.13;11.07;;;;;;;;;;1051474;28;20020;-77
2022/11/13 00:42:38;;;;;;;17.92;12.13;;;;;;;;;;1051209;28;20098;-78
2022/11/13 00:43:09;;;;;;;13.65;11.18;;;;;;;;;;1047687;28;20601;-78
2022/11/13 00:43:40;;;;;;;15.02;11.82;;;;;;;;;;1048964;28;20119;-78
2022/11/13 00:44:11;;;;;;;16.10;11.82;;;;;;;;;;1047448;28;20395;-78
2022/11/13 00:44:42;;;;;;;13.80;11.90;;;;;;;;;;1047231;28;20391;-77
2022/11/13 00:45:13;;;;;;;15.85;12.25;;;;;;;;;;1048832;28;20020;-76
2022/11/13 00:45:44;;;;;;;17.65;12.18;;;;;;;;;;1051271;28;20390;-77
2022/11/13 00:46:15;;;;;;;14.68;10.60;;;;;;;;;;1051563;28;20039;-79
2022/11/13 00:46:46;;;;;;;11.75;10.50;;;;;;;;;;1051484;28;20015;-80
2022/11/13 00:47:17;;;;;;;14.85;11.52;;;;;;;;;;1051362;28;20626;-78
2022/11/13 00:47:48;;;;;;;14.30;11.85;;;;;;;;;;1047790;28;20027;-77
2022/11/13 00:48:19;;;;;;;16.73;11.10;;;;;;;;;;1051491;28;20016;-77
2022/11/13 00:48:50;;;;;;;15.80;11.00;;;;;;;;;;1051350;28;20103;-77
2022/11/13 00:49:21;;;;;;;13.98;10.73;;;;;;;;;;1051573;28;20673;-78
2022/11/13 00:49:53;;;;;;;14.63;10.98;;;;;;;;;;1051786;28;20425;-79
2022/11/13 00:50:24;;;;;;;13.77;12.10;;;;;;;;;;1051282;28;20074;-78
2022/11/13 00:50:55;;;;;;;18.33;12.85;;;;;;;;;;1051345;28;20198;-77
2022/11/13 00:51:25;;;;;;;16.80;12.82;;;;;;;;;;1051353;28;20020;-79
2022/11/13 00:51:59;;;;;;;14.15;11.25;;;;;;;;;;1047103;28;20016;-77
2022/11/13 00:52:30;;;;;;;14.02;11.82;;;;;;;;;;1051482;28;20024;-77
2022/11/13 00:53:00;;;;;;;13.23;10.80;;;;;;;;;;1051595;28;20107;-78
2022/11/13 00:53:31;;;;;;;13.60;10.77;;;;;;;;;;1051286;28;20016;-78
2022/11/13 00:54:02;;;;;;;12.25;10.45;;;;;;;;;;1051252;28;20430;-78
2022/11/13 00:54:33;;;;;;;15.35;11.70;;;;;;;;;;1051361;28;20039;-79
2022/11/13 00:55:05;;;;;;;12.80;11.02;;;;;;;;;;1047134;28;20077;-76
2022/11/13 00:55:36;;;;;;;15.20;11.30;;;;;;;;;;1047095;28;20032;-78
2022/11/13 00:56:07;;;;;;;15.40;11.15;;;;;;;;;;1043047;28;20400;-77
2022/11/13 00:56:38;;;;;;;13.13;10.60;;;;;;;;;;1043205;28;20054;-79
2022/11/13 00:57:09;;;;;;;13.05;10.93;;;;;;;;;;1044849;28;20029;-79
2022/11/13 00:57:40;;;;;;;13.10;11.63;;;;;;;;;;1046879;28;20404;-78
2022/11/13 00:58:11;;;;;;;13.27;11.35;;;;;;;;;;1047187;28;20020;-78
2022/11/13 00:58:42;;;;;;;12.98;10.55;;;;;;;;;;1042624;28;20056;-79
2022/11/13 00:59:13;;;;;;;12.82;10.20;;;;;;;;;;1046324;28;20035;-77
2022/11/13 00:59:44;;;;;;;11.40;9.90;;;;;;;;;;1043157;28;20075;-79
2022/11/13 01:00:15;;;;;;;13.48;10.15;;;;;;;;;;1043393;28;20135;-79
2022/11/13 01:00:47;;;;;;;13.45;11.00;;;;;;;;;;1047017;28;20033;-79
2022/11/13 01:01:18;;;;;;;14.38;11.73;;;;;;;;;;1046988;28;20017;-79
2022/11/13 01:01:50;;;;;;;13.98;10.38;;;;;;;;;;1043102;28;20086;-77
2022/11/13 01:02:21;;;;;;;12.93;10.27;;;;;;;;;;1049222;28;20028;-81
2022/11/13 01:02:52;;;;;;;13.77;10.95;;;;;;;;;;1051256;28;20028;-79
2022/11/13 01:03:24;;;;;;;13.70;11.60;;;;;;;;;;1051037;28;20463;-78
2022/11/13 01:03:55;;;;;;;15.98;11.32;;;;;;;;;;1047001;28;20036;-78
2022/11/13 01:04:27;;;;;;;14.23;10.60;;;;;;;;;;1047244;28;20266;-78
2022/11/13 01:04:58;;;;;;;14.90;11.23;;;;;;;;;;1042971;28;20033;-77
2022/11/13 01:05:29;;;;;;;14.65;10.88;;;;;;;;;;1042627;28;20021;-78
2022/11/13 01:06:00;;;;;;;13.85;11.20;;;;;;;;;;1039109;28;20029;-78
2022/11/13 01:06:31;;;;;;;13.65;10.65;;;;;;;;;;1039015;28;20029;-78
2022/11/13 01:07:02;;;;;;;16.08;11.02;;;;;;;;;;1037446;28;20036;-78
2022/11/13 01:07:35;;;;;;;13.45;10.30;;;;;;;;;;1040750;28;20055;-79
2022/11/13 01:08:06;;;;;;;16.15;11.55;;;;;;;;;;1046799;28;20602;-79
2022/11/13 01:08:37;;;;;;;14.90;11.38;;;;;;;;;;1042706;28;20391;-79
2022/11/13 01:09:08;;;;;;;13.68;11.07;;;;;;;;;;1043162;28;20039;-78
2022/11/13 01:09:39;;;;;;;13.77;10.43;;;;;;;;;;1047044;28;20502;-77
2022/11/13 01:10:12;;;;;;;14.05;10.30;;;;;;;;;;1042988;28;20768;-78
2022/11/13 01:10:44;;;;;;;14.25;10.75;;;;;;;;;;1044704;28;20058;-77
2022/11/13 01:11:19;;;;;;;12.70;9.98;;;;;;;;;;1042870;28;20035;-78
2022/11/13 01:11:50;;;;;;;13.32;10.15;;;;;;;;;;1047820;28;20054;-78
2022/11/13 01:12:21;;;;;;;12.25;10.30;;;;;;;;;;1046566;28;20453;-79
2022/11/13 01:12:52;;;;;;;13.73;10.88;;;;;;;;;;1042851;28;20496;-79
2022/11/13 01:13:23;;;;;;;13.68;11.23;;;;;;;;;;1043035;28;20029;-79
2022/11/13 01:13:54;;;;;;;16.08;11.93;;;;;;;;;;1043370;28;20589;-78
2022/11/13 01:14:25;;;;;;;13.85;10.38;;;;;;;;;;1043490;28;20164;-79
2022/11/13 01:14:56;;;;;;;12.80;9.38;;;;;;;;;;1043409;28;20533;-77
2022/11/13 01:15:27;;;;;;;12.73;10.68;;;;;;;;;;1042849;28;20029;-78
2022/11/13 01:15:58;;;;;;;11.38;8.98;;;;;;;;;;1045778;28;20108;-77
2022/11/13 01:16:29;;;;;;;17.20;10.15;;;;;;;;;;1047233;28;20402;-78
2022/11/13 01:17:00;;;;;;;12.35;10.50;;;;;;;;;;1047265;28;20762;-78
2022/11/13 01:17:31;;;;;;;12.88;9.80;;;;;;;;;;1042828;28;20143;-78
2022/11/13 01:18:02;;;;;;;15.13;10.75;;;;;;;;;;1042981;28;20130;-80
2022/11/13 01:18:33;;;;;;;12.15;9.73;;;;;;;;;;1044184;28;20427;-79
2022/11/13 01:19:04;;;;;;;11.98;10.02;;;;;;;;;;1047080;28;20063;-78
2022/11/13 01:19:35;;;;;;;14.82;9.82;;;;;;;;;;1042898;28;20027;-77
2022/11/13 01:20:06;;;;;;;13.00;10.10;;;;;;;;;;1042704;28;20486;-78
2022/11/13 01:20:37;;;;;;;13.07;10.15;;;;;;;;;;1042570;28;20025;-79
2022/11/13 01:21:10;;;;;;;13.90;9.75;;;;;;;;;;1045779;28;20024;-78
2022/11/13 01:21:41;;;;;;;11.43;10.20;;;;;;;;;;1046843;28;20044;-78
2022/11/13 01:22:13;;;;;;;14.85;10.80;;;;;;;;;;1047676;28;20031;-77
2022/11/13 01:22:44;;;;;;;12.50;9.68;;;;;;;;;;1050975;28;20027;-78
2022/11/13 01:23:15;;;;;;;13.98;9.15;;;;;;;;;;1051045;28;20032;-78
2022/11/13 01:23:46;;;;;;;11.80;9.70;;;;;;;;;;1051227;28;20202;-78
2022/11/13 01:24:17;;;;;;;10.63;8.45;;;;;;;;;;1050848;28;20577;-78
2022/11/13 01:24:48;;;;;;;14.77;9.77;;;;;;;;;;1050995;28;20020;-77
2022/11/13 01:25:19;;;;;;;11.38;9.50;;;;;;;;;;1050927;28;20028;-78
2022/11/13 01:25:50;;;;;;;11.73;9.20;;;;;;;;;;1050772;28;20705;-77
2022/11/13 01:26:28;;;;;;;14.10;11.52;;;;;;;;;;1051621;28;20105;-78
2022/11/13 01:26:59;;;;;;;12.88;9.93;;;;;;;;;;1046848;28;20021;-78
2022/11/13 01:27:30;;;;;;;15.32;10.48;;;;;;;;;;1047691;28;20039;-78
2022/11/13 01:28:01;;;;;;;14.88;10.95;;;;;;;;;;1046750;28;20016;-77
2022/11/13 01:28:32;;;;;;;15.50;11.43;;;;;;;;;;1047290;28;20031;-79
2022/11/13 01:29:03;;;;;;;12.00;9.90;;;;;;;;;;1050970;28;20028;-77
2022/11/13 01:29:34;;;;;;;14.30;9.55;;;;;;;;;;1050586;28;20074;-79
2022/11/13 01:30:05;;;;;;;12.95;9.52;;;;;;;;;;1042565;28;20190;-79
2022/11/13 01:30:38;;;;;;;12.98;9.65;;;;;;;;;;1042929;28;20059;-76
2022/11/13 01:31:11;;;;;;;15.38;10.23;;;;;;;;;;1047508;28;20013;-78
2022/11/13 01:31:41;;;;;;;14.35;10.13;;;;;;;;;;1046904;28;20025;-77
2022/11/13 01:32:12;;;;;;;15.52;10.77;;;;;;;;;;1042882;28;20060;-78
2022/11/13 01:32:43;;;;;;;14.38;10.30;;;;;;;;;;1038374;28;20017;-78
2022/11/13 01:33:14;;;;;;;13.68;9.43;;;;;;;;;;1039146;28;20014;-79
2022/11/13 01:33:46;;;;;;;12.60;9.80;;;;;;;;;;1043187;28;20021;-77
2022/11/13 01:34:17;;;;;;;12.32;8.60;;;;;;;;;;1047414;28;20016;-78
2022/11/13 01:34:48;;;;;;;15.13;10.57;;;;;;;;;;1054674;28;20016;-77
2022/11/13 01:35:19;;;;;;;12.85;9.60;;;;;;;;;;1047482;28;20044;-79
2022/11/13 01:35:50;;;;;;;13.68;10.02;;;;;;;;;;1047188;28;20021;-78
2022/11/13 01:36:22;;;;;;;12.43;9.88;;;;;;;;;;1049192;28;20238;-79
2022/11/13 01:36:53;;;;;;;12.05;8.20;;;;;;;;;;1044857;28;20016;-78
2022/11/13 01:37:24;;;;;;;13.15;10.48;;;;;;;;;;1047041;28;20008;-79
2022/11/13 01:37:55;;;;;;;15.32;11.82;;;;;;;;;;1046980;28;20021;-78
2022/11/13 01:38:26;;;;;;;14.70;10.65;;;;;;;;;;1047283;28;20017;-79
2022/11/13 01:38:57;;;;;;;12.27;9.95;;;;;;;;;;1051690;28;20545;-77
2022/11/13 01:39:28;;;;;;;10.90;9.43;;;;;;;;;;1051107;28;20019;-78
2022/11/13 01:39:59;;;;;;;14.00;10.23;;;;;;;;;;1051013;28;20015;-77
2022/11/13 01:40:30;;;;;;;14.40;9.82;;;;;;;;;;1047196;28;20511;-78
2022/11/13 01:41:01;;;;;;;12.43;9.40;;;;;;;;;;1046839;28;20024;-78
2022/11/13 01:41:33;;;;;;;14.15;10.30;;;;;;;;;;1047297;28;20035;-78
2022/11/13 01:42:04;;;;;;;12.20;9.95;;;;;;;;;;1047004;28;20502;-77
2022/11/13 01:42:35;;;;;;;13.43;9.77;;;;;;;;;;1050743;28;20477;-79
2022/11/13 01:43:25;;;;;;;11.85;10.23;;;;;;;;;;1051395;28;20013;-78
2022/11/13 01:43:56;;;;;;;15.93;11.40;;;;;;;;;;1038729;28;20017;-76
2022/11/13 01:44:44;;;;;;;12.13;10.30;;;;;;;;;;1042163;28;20017;-78
2022/11/13 01:45:33;;;;;;;14.95;10.60;;;;;;;;;;1048491;28;20119;-78
2022/11/13 01:46:07;;;;;;;13.68;9.95;;;;;;;;;;1051182;28;20028;-78
2022/11/13 01:46:43;;;;;;;10.57;9.02;;;;;;;;;;1046724;28;20111;-77
2022/11/13 01:47:15;;;;;;;13.75;10.15;;;;;;;;;;1046856;28;20429;-79
2022/11/13 01:47:46;;;;;;;11.50;9.40;;;;;;;;;;1047203;28;20021;-78
2022/11/13 01:48:17;;;;;;;14.13;9.57;;;;;;;;;;1051582;28;20020;-78
2022/11/13 01:48:51;;;;;;;12.00;9.50;;;;;;;;;;1047148;28;20020;-77
2022/11/13 01:49:28;;;;;;;12.20;10.00;;;;;;;;;;1051290;28;20054;-78
2022/11/13 01:50:01;;;;;;;13.80;10.77;;;;;;;;;;1046934;28;20106;-79
2022/11/13 01:50:32;;;;;;;14.40;10.23;;;;;;;;;;1046988;28;20027;-78
2022/11/13 01:51:07;;;;;;;10.60;9.18;;;;;;;;;;1043009;28;20028;-77
2022/11/13 01:51:40;;;;;;;12.98;10.07;;;;;;;;;;1039383;28;20037;-78
2022/11/13 01:52:17;;;;;;;12.40;9.45;;;;;;;;;;1048196;28;20020;-77
2022/11/13 01:52:48;;;;;;;13.02;10.15;;;;;;;;;;1053052;28;20129;-79
2022/11/13 01:53:19;;;;;;;14.52;10.70;;;;;;;;;;1051214;28;20467;-78
2022/11/13 01:53:50;;;;;;;14.30;10.48;;;;;;;;;;1050405;28;20028;-78
2022/11/13 01:54:25;;;;;;;13.98;10.23;;;;;;;;;;1046797;28;20025;-78
2022/11/13 01:55:00;;;;;;;15.75;10.75;;;;;;;;;;1046972;28;20104;-76
2022/11/13 01:55:31;;;;;;;11.98;9.90;;;;;;;;;;1047823;28;20021;-77
2022/11/13 01:56:02;;;;;;;16.98;10.35;;;;;;;;;;1051256;28;20111;-78
2022/11/13 01:56:33;;;;;;;13.95;10.38;;;;;;;;;;1051133;28;20012;-77
2022/11/13 01:57:04;;;;;;;14.85;10.60;;;;;;;;;;1051142;28;20422;-77
2022/11/13 01:57:35;;;;;;;18.67;10.30;;;;;;;;;;1046626;28;20416;-77
2022/11/13 01:58:08;;;;;;;12.43;10.00;;;;;;;;;;1047353;28;20537;-78
2022/11/13 01:58:40;;;;;;;13.98;10.25;;;;;;;;;;1047568;28;20328;-78
2022/11/13 01:59:11;;;;;;;17.27;9.95;;;;;;;;;;1051101;28;20329;-79
2022/11/13 01:59:44;;;;;;;14.52;11.07;;;;;;;;;;1051401;28;20012;-77
2022/11/13 02:00:16;;;;;;;15.05;10.93;;;;;;;;;;1051667;28;20078;-78
2022/11/13 02:00:46;;;;;;;15.68;10.40;;;;;;;;;;1047434;28;20085;-78
2022/11/13 02:01:17;;;;;;;13.70;11.05;;;;;;;;;;1051357;28;20447;-78
2022/11/13 02:01:48;;;;;;;15.10;10.55;;;;;;;;;;1051263;28;20055;-78
2022/11/13 02:02:19;;;;;;;15.68;10.88;;;;;;;;;;1047404;28;20031;-79
2022/11/13 02:02:50;;;;;;;12.15;9.32;;;;;;;;;;1051104;28;20028;-78
2022/11/13 02:03:21;;;;;;;12.07;9.65;;;;;;;;;;1051298;28;20023;-77
2022/11/13 02:03:52;;;;;;;15.75;10.27;;;;;;;;;;1051247;28;20123;-78
2022/11/13 02:04:24;;;;;;;12.63;10.85;;;;;;;;;;1047012;28;20502;-77
2022/11/13 02:04:55;;;;;;;15.55;11.73;;;;;;;;;;1046685;28;20035;-79
2022/11/13 02:05:26;;;;;;;13.70;11.13;;;;;;;;;;1047111;28;20024;-78
2022/11/13 02:05:57;;;;;;;14.85;11.30;;;;;;;;;;1047265;28;20122;-78
2022/11/13 02:06:30;;;;;;;11.68;9.75;;;;;;;;;;1051187;28;20031;-79
2022/11/13 02:07:03;;;;;;;14.02;10.55;;;;;;;;;;1048611;28;20107;-78
2022/11/13 02:07:34;;;;;;;16.10;10.88;;;;;;;;;;1045892;28;20046;-78
2022/11/13 02:08:05;;;;;;;13.70;11.57;;;;;;;;;;1042714;28;20056;-78
2022/11/13 02:08:36;;;;;;;14.45;10.90;;;;;;;;;;1042736;28;20137;-79
2022/11/13 02:09:07;;;;;;;13.25;10.07;;;;;;;;;;1043249;28;20024;-77
2022/11/13 02:09:40;;;;;;;14.52;11.60;;;;;;;;;;1042994;28;20430;-79
2022/11/13 02:10:11;;;;;;;15.23;11.75;;;;;;;;;;1047766;28;20119;-79
2022/11/13 02:10:42;;;;;;;14.40;12.13;;;;;;;;;;1046865;28;20142;-79
2022/11/13 02:11:13;;;;;;;12.90;10.75;;;;;;;;;;1047522;28;20111;-79
2022/11/13 02:11:44;;;;;;;14.13;11.05;;;;;;;;;;1051135;28;20025;-79
2022/11/13 02:12:18;;;;;;;13.77;10.57;;;;;;;;;;1050998;28;20032;-79
2022/11/13 02:12:50;;;;;;;14.85;10.82;;;;;;;;;;1042572;28;20510;-77
2022/11/13 02:13:22;;;;;;;14.27;11.18;;;;;;;;;;1038642;28;20025;-77
2022/11/13 02:13:53;;;;;;;15.68;12.10;;;;;;;;;;1039631;28;20036;-76
2022/11/13 02:14:25;;;;;;;14.43;11.43;;;;;;;;;;1042779;28;20019;-79
2022/11/13 02:14:57;;;;;;;14.73;12.02;;;;;;;;;;1046849;28;20085;-77
2022/11/13 02:15:31;;;;;;;16.15;12.45;;;;;;;;;;1043392;28;20025;-77
2022/11/13 02:16:02;;;;;;;15.40;12.00;;;;;;;;;;1045724;28;20525;-77
2022/11/13 02:16:34;;;;;;;14.55;10.80;;;;;;;;;;1046992;28;20561;-77
2022/11/13 02:17:06;;;;;;;15.75;11.40;;;;;;;;;;1043616;28;20637;-78
2022/11/13 02:17:42;;;;;;;20.17;12.07;;;;;;;;;;1043053;28;20147;-78
2022/11/13 02:18:14;;;;;;;13.63;9.68;;;;;;;;;;1042949;28;20059;-78
2022/11/13 02:18:45;;;;;;;12.48;10.15;;;;;;;;;;1043614;28;20025;-78
2022/11/13 02:19:23;;;;;;;15.45;11.13;;;;;;;;;;1047071;28;20024;-78
2022/11/13 02:19:57;;;;;;;13.75;11.02;;;;;;;;;;1044267;28;20064;-78
2022/11/13 02:20:33;;;;;;;15.07;10.85;;;;;;;;;;1044606;28;20434;-77
2022/11/13 02:21:23;;;;;;;15.30;11.02;;;;;;;;;;1046971;28;20096;-77
2022/11/13 02:21:59;;;;;;;16.33;11.65;;;;;;;;;;1050872;28;20035;-78
2022/11/13 02:22:30;;;;;;;17.10;12.82;;;;;;;;;;1051215;28;20074;-77
2022/11/13 02:23:07;;;;;;;16.05;11.60;;;;;;;;;;1046851;28;20047;-77
2022/11/13 02:23:38;;;;;;;14.07;11.02;;;;;;;;;;1046969;28;20411;-78
2022/11/13 02:24:14;;;;;;;14.45;10.93;;;;;;;;;;1048108;28;20379;-77
2022/11/13 02:24:46;;;;;;;13.85;9.80;;;;;;;;;;1042482;28;20036;-77
2022/11/13 02:25:17;;;;;;;17.70;10.88;;;;;;;;;;1041997;28;20045;-77
2022/11/13 02:25:50;;;;;;;15.30;11.73;;;;;;;;;;1039847;28;20053;-78
2022/11/13 02:26:22;;;;;;;15.52;11.32;;;;;;;;;;1041156;28;20025;-78
2022/11/13 02:26:55;;;;;;;15.68;11.77;;;;;;;;;;1044861;28;20086;-77
2022/11/13 02:27:29;;;;;;;14.27;10.32;;;;;;;;;;1050060;28;20037;-78
2022/11/13 02:28:01;;;;;;;15.93;11.18;;;;;;;;;;1046764;28;20032;-78
2022/11/13 02:28:32;;;;;;;14.35;10.95;;;;;;;;;;1047253;28;20024;-78
2022/11/13 02:29:03;;;;;;;12.40;10.75;;;;;;;;;;1043665;28;20060;-77
2022/11/13 02:29:34;;;;;;;14.30;11.05;;;;;;;;;;1047379;28;20029;-78
2022/11/13 02:30:31;;;;;;;12.82;11.00;;;;;;;;;;1047203;28;20031;-79
2022/11/13 02:31:06;;;;;;;14.52;11.57;;;;;;;;;;1042795;28;20040;-77
2022/11/13 02:31:37;;;;;;;17.00;12.00;;;;;;;;;;1042932;28;20021;-78
2022/11/13 02:32:08;;;;;;;16.52;11.10;;;;;;;;;;1047007;28;20024;-77
2022/11/13 02:32:45;;;;;;;11.82;10.07;;;;;;;;;;1043929;28;20029;-77
2022/11/13 02:33:25;;;;;;;14.13;10.77;;;;;;;;;;1051300;28;20024;-77
2022/11/13 02:33:55;;;;;;;14.07;11.05;;;;;;;;;;1046759;28;20061;-78
2022/11/13 02:34:26;;;;;;;15.40;11.45;;;;;;;;;;1047121;28;20074;-78
2022/11/13 02:34:57;;;;;;;17.00;11.23;;;;;;;;;;1047979;28;20020;-78
2022/11/13 02:35:33;;;;;;;16.20;10.48;;;;;;;;;;1047185;28;20155;-78
2022/11/13 02:36:04;;;;;;;15.48;11.35;;;;;;;;;;1046918;28;20024;-78
2022/11/13 02:36:35;;;;;;;15.60;11.23;;;;;;;;;;1046669;28;20127;-78
2022/11/13 02:37:06;;;;;;;13.02;9.65;;;;;;;;;;1049090;28;20025;-79
2022/11/13 02:37:38;;;;;;;14.35;11.32;;;;;;;;;;1051146;28;20020;-78
2022/11/13 02:38:08;;;;;;;16.70;10.35;;;;;;;;;;1050989;28;20492;-78
2022/11/13 02:38:40;;;;;;;13.25;10.80;;;;;;;;;;1050105;28;20425;-78
2022/11/13 02:39:12;;;;;;;12.68;10.45;;;;;;;;;;1043044;28;20201;-77
2022/11/13 02:39:43;;;;;;;11.98;9.85;;;;;;;;;;1038891;28;20073;-78
2022/11/13 02:40:14;;;;;;;17.10;12.43;;;;;;;;;;1043144;28;20060;-77
2022/11/13 02:40:45;;;;;;;11.05;9.25;;;;;;;;;;1038721;28;20104;-79
2022/11/13 02:41:16;;;;;;;17.33;10.88;;;;;;;;;;1043461;28;20021;-78
2022/11/13 02:41:47;;;;;;;14.30;11.20;;;;;;;;;;1042682;28;20025;-79
2022/11/13 02:42:18;;;;;;;14.48;10.25;;;;;;;;;;1045896;28;20070;-78
2022/11/13 02:42:48;;;;;;;14.55;10.00;;;;;;;;;;1050917;28;20464;-78
2022/11/13 02:43:19;;;;;;;13.02;10.65;;;;;;;;;;1051375;28;20051;-78
2022/11/13 02:43:50;;;;;;;13.25;10.75;;;;;;;;;;1049492;28;20044;-79
2022/11/13 02:44:21;;;;;;;14.02;10.90;;;;;;;;;;1050082;28;20028;-78
2022/11/13 02:44:52;;;;;;;14.98;10.27;;;;;;;;;;1051062;28;20042;-78
2022/11/13 02:45:23;;;;;;;13.63;9.88;;;;;;;;;;1050689;28;20577;-78
2022/11/13 02:45:54;;;;;;;15.38;11.52;;;;;;;;;;1046915;28;20048;-76
2022/11/13 02:46:25;;;;;;;11.55;9.73;;;;;;;;;;1047085;28;20021;-77
2022/11/13 02:46:56;;;;;;;12.77;9.90;;;;;;;;;;1042880;28;20392;-78
2022/11/13 02:47:27;;;;;;;14.90;10.57;;;;;;;;;;1050214;28;20025;-78
2022/11/13 02:47:59;;;;;;;12.48;9.50;;;;;;;;;;1050983;28;20020;-77
2022/11/13 02:48:30;;;;;;;13.48;11.43;;;;;;;;;;1051245;28;20020;-79
2022/11/13 02:49:01;;;;;;;14.32;10.05;;;;;;;;;;1050863;28;20028;-78
2022/11/13 02:49:32;;;;;;;14.52;10.25;;;;;;;;;;1050990;28;20020;-79
2022/11/13 02:50:04;;;;;;;15.02;10.38;;;;;;;;;;1050587;28;20029;-78
2022/11/13 02:50:35;;;;;;;15.82;11.45;;;;;;;;;;1046976;28;20036;-79
2022/11/13 02:51:06;;;;;;;17.88;11.13;;;;;;;;;;1047048;28;20029;-76
2022/11/13 02:51:37;;;;;;;13.43;10.00;;;;;;;;;;1046879;28;20482;-77
2022/11/13 02:52:08;;;;;;;14.65;10.73;;;;;;;;;;1051117;28;20676;-77
2022/11/13 02:52:39;;;;;;;13.40;9.95;;;;;;;;;;1050766;28;20078;-79
2022/11/13 02:53:10;;;;;;;15.20;9.90;;;;;;;;;;1051008;28;20053;-77
2022/11/13 02:53:41;;;;;;;14.38;10.43;;;;;;;;;;1049669;28;20052;-79
2022/11/13 02:54:12;;;;;;;13.13;11.23;;;;;;;;;;1051950;28;20489;-78
2022/11/13 02:54:43;;;;;;;11.75;9.63;;;;;;;;;;1051949;28;20240;-79
2022/11/13 02:55:14;;;;;;;12.73;9.95;;;;;;;;;;1051995;28;20502;-78
2022/11/13 02:55:45;;;;;;;13.88;10.68;;;;;;;;;;1050156;28;20032;-79
2022/11/13 02:56:16;;;;;;;14.20;10.82;;;;;;;;;;1047889;28;20020;-79
2022/11/13 02:56:47;;;;;;;14.25;10.25;;;;;;;;;;1047929;28;20090;-79
2022/11/13 02:57:18;;;;;;;15.23;11.18;;;;;;;;;;1047564;28;20024;-76
2022/11/13 02:57:49;;;;;;;13.27;10.77;;;;;;;;;;1051680;28;20031;-78
2022/11/13 02:58:20;;;;;;;15.52;10.20;;;;;;;;;;1047596;28;20080;-77
2022/11/13 02:58:51;;;;;;;13.65;10.13;;;;;;;;;;1047812;28;20040;-77
2022/11/13 02:59:22;;;;;;;13.60;10.30;;;;;;;;;;1047335;28;20023;-77
2022/11/13 02:59:52;;;;;;;14.00;10.45;;;;;;;;;;1043238;28;20025;-78
2022/11/13 03:00:24;;;;;;;14.38;10.13;;;;;;;;;;1043721;28;20051;-78
2022/11/13 03:00:55;;;;;;;13.43;9.95;;;;;;;;;;1047635;28;20422;-79
2022/11/13 03:01:26;;;;;;;14.10;11.35;;;;;;;;;;1052308;28;20494;-79
2022/11/13 03:01:57;;;;;;;12.70;10.48;;;;;;;;;;1056377;28;20031;-78
2022/11/13 03:02:28;;;;;;;12.75;10.35;;;;;;;;;;1056478;28;20019;-78
2022/11/13 03:02:59;;;;;;;12.32;9.95;;;;;;;;;;1051302;28;20194;-78
2022/11/13 03:03:30;;;;;;;14.85;10.32;;;;;;;;;;1047392;28;20025;-77
2022/11/13 03:04:01;;;;;;;11.73;9.18;;;;;;;;;;1047573;28;20687;-78
2022/11/13 03:04:32;;;;;;;12.95;9.82;;;;;;;;;;1047777;28;20024;-77
2022/11/13 03:05:03;;;;;;;14.15;9.75;;;;;;;;;;1044173;28;20025;-78
2022/11/13 03:05:34;;;;;;;13.13;9.45;;;;;;;;;;1041621;28;20029;-77